sensor_id;sensor_type;location;lat;lon;timestamp;P1;durP1;ratioP1;P2;durP2;ratioP2
10007;SDS011;5043;41.766;26.204;2023-02-07T00:01:57;8.77;;;5.63;;
10007;SDS011;5043;41.766;26.204;2023-02-07T00:04:23;9.83;;;6.93;;
10007;SDS011;5043;41.766;26.204;2023-02-07T00:06:48;8.67;;;6.00;;
10007;SDS011;5043;41.766;26.204;2023-02-07T00:09:14;10.37;;;6.57;;
10007;SDS011;5043;41.766;26.204;2023-02-07T00:11:41;9.87;;;6.60;;
10007;SDS011;5043;41.766;26.204;2023-02-07T00:14:08;17.40;;;8.13;;
10007;SDS011;5043;41.766;26.204;2023-02-07T00:16:35;14.17;;;8.33;;
10007;SDS011;5043;41.766;26.204;2023-02-07T00:19:00;9.80;;;6.57;;
10007;SDS011;5043;41.766;26.204;2023-02-07T00:21:28;17.53;;;8.87;;
10007;SDS011;5043;41.766;26.204;2023-02-07T00:23:53;21.97;;;10.40;;
10007;SDS011;5043;41.766;26.204;2023-02-07T00:26:20;13.07;;;7.70;;
10007;SDS011;5043;41.766;26.204;2023-02-07T00:28:48;19.40;;;8.33;;
10007;SDS011;5043;41.766;26.204;2023-02-07T00:31:48;23.70;;;10.13;;
10007;SDS011;5043;41.766;26.204;2023-02-07T00:34:06;26.77;;;12.33;;
10007;SDS011;5043;41.766;26.204;2023-02-07T00:36:33;24.33;;;11.07;;
10007;SDS011;5043;41.766;26.204;2023-02-07T00:39:01;22.13;;;9.87;;
10007;SDS011;5043;41.766;26.204;2023-02-07T00:41:28;18.80;;;9.07;;
10007;SDS011;5043;41.766;26.204;2023-02-07T00:43:55;14.27;;;8.40;;
10007;SDS011;5043;41.766;26.204;2023-02-07T00:46:20;14.93;;;7.30;;
10007;SDS011;5043;41.766;26.204;2023-02-07T00:48:46;14.63;;;7.60;;
10007;SDS011;5043;41.766;26.204;2023-02-07T00:51:12;21.40;;;10.33;;
10007;SDS011;5043;41.766;26.204;2023-02-07T00:53:38;24.00;;;10.93;;
10007;SDS011;5043;41.766;26.204;2023-02-07T00:56:05;25.20;;;10.77;;
10007;SDS011;5043;41.766;26.204;2023-02-07T00:58:31;20.60;;;11.37;;
10007;SDS011;5043;41.766;26.204;2023-02-07T01:00:57;25.70;;;12.50;;
10007;SDS011;5043;41.766;26.204;2023-02-07T01:03:22;15.43;;;9.17;;
10007;SDS011;5043;41.766;26.204;2023-02-07T01:05:48;13.87;;;8.47;;
10007;SDS011;5043;41.766;26.204;2023-02-07T01:08:14;18.67;;;8.37;;
10007;SDS011;5043;41.766;26.204;2023-02-07T01:10:40;14.97;;;8.83;;
10007;SDS011;5043;41.766;26.204;2023-02-07T01:13:06;13.07;;;7.10;;
10007;SDS011;5043;41.766;26.204;2023-02-07T01:15:35;15.40;;;7.50;;
10007;SDS011;5043;41.766;26.204;2023-02-07T01:18:05;20.33;;;8.60;;
10007;SDS011;5043;41.766;26.204;2023-02-07T01:20:32;14.77;;;7.20;;
10007;SDS011;5043;41.766;26.204;2023-02-07T01:22:57;12.20;;;6.90;;
10007;SDS011;5043;41.766;26.204;2023-02-07T01:25:23;10.47;;;6.93;;
10007;SDS011;5043;41.766;26.204;2023-02-07T01:27:48;11.10;;;6.93;;
10007;SDS011;5043;41.766;26.204;2023-02-07T01:30:14;15.53;;;7.33;;
10007;SDS011;5043;41.766;26.204;2023-02-07T01:32:39;11.50;;;6.43;;
10007;SDS011;5043;41.766;26.204;2023-02-07T01:35:05;11.67;;;7.07;;
10007;SDS011;5043;41.766;26.204;2023-02-07T01:37:31;14.93;;;8.10;;
10007;SDS011;5043;41.766;26.204;2023-02-07T01:39:57;13.60;;;8.63;;
10007;SDS011;5043;41.766;26.204;2023-02-07T01:42:23;22.07;;;10.47;;
10007;SDS011;5043;41.766;26.204;2023-02-07T01:47:25;18.50;;;9.67;;
10007;SDS011;5043;41.766;26.204;2023-02-07T01:49:51;15.00;;;8.87;;
10007;SDS011;5043;41.766;26.204;2023-02-07T01:52:20;16.27;;;8.37;;
10007;SDS011;5043;41.766;26.204;2023-02-07T01:54:57;12.50;;;7.50;;
10007;SDS011;5043;41.766;26.204;2023-02-07T01:57:27;11.53;;;7.90;;
10007;SDS011;5043;41.766;26.204;2023-02-07T01:59:55;10.50;;;7.20;;
10007;SDS011;5043;41.766;26.204;2023-02-07T02:02:22;13.80;;;9.07;;
10007;SDS011;5043;41.766;26.204;2023-02-07T02:04:52;10.77;;;7.83;;
10007;SDS011;5043;41.766;26.204;2023-02-07T02:07:18;10.07;;;7.23;;
10007;SDS011;5043;41.766;26.204;2023-02-07T02:09:44;9.63;;;7.37;;
10007;SDS011;5043;41.766;26.204;2023-02-07T02:15:26;17.50;;;12.80;;
10007;SDS011;5043;41.766;26.204;2023-02-07T02:21:54;10.47;;;7.80;;
10007;SDS011;5043;41.766;26.204;2023-02-07T02:35:30;11.83;;;7.03;;
10007;SDS011;5043;41.766;26.204;2023-02-07T02:38:15;11.03;;;7.93;;
10007;SDS011;5043;41.766;26.204;2023-02-07T02:41:08;11.03;;;6.93;;
10007;SDS011;5043;41.766;26.204;2023-02-07T02:46:30;13.23;;;8.33;;
10007;SDS011;5043;41.766;26.204;2023-02-07T02:49:00;47.43;;;23.20;;
10007;SDS011;5043;41.766;26.204;2023-02-07T02:51:27;43.23;;;22.43;;
10007;SDS011;5043;41.766;26.204;2023-02-07T02:53:54;50.67;;;26.97;;
10007;SDS011;5043;41.766;26.204;2023-02-07T02:56:28;21.47;;;13.10;;
10007;SDS011;5043;41.766;26.204;2023-02-07T03:01:34;11.97;;;8.13;;
10007;SDS011;5043;41.766;26.204;2023-02-07T03:04:41;15.53;;;8.37;;
10007;SDS011;5043;41.766;26.204;2023-02-07T03:07:15;15.03;;;9.93;;
10007;SDS011;5043;41.766;26.204;2023-02-07T03:12:50;18.27;;;12.57;;
10007;SDS011;5043;41.766;26.204;2023-02-07T03:18:27;13.43;;;8.90;;
10007;SDS011;5043;41.766;26.204;2023-02-07T03:20:55;10.87;;;7.57;;
10007;SDS011;5043;41.766;26.204;2023-02-07T03:23:26;11.43;;;7.10;;
10007;SDS011;5043;41.766;26.204;2023-02-07T03:25:53;29.80;;;14.20;;
10007;SDS011;5043;41.766;26.204;2023-02-07T03:28:23;28.60;;;14.63;;
10007;SDS011;5043;41.766;26.204;2023-02-07T03:30:50;20.87;;;11.33;;
10007;SDS011;5043;41.766;26.204;2023-02-07T03:33:19;20.67;;;10.30;;
10007;SDS011;5043;41.766;26.204;2023-02-07T03:35:47;16.67;;;9.80;;
10007;SDS011;5043;41.766;26.204;2023-02-07T03:38:21;15.97;;;9.20;;
10007;SDS011;5043;41.766;26.204;2023-02-07T03:40:49;18.53;;;9.60;;
10007;SDS011;5043;41.766;26.204;2023-02-07T03:43:29;12.80;;;8.50;;
10007;SDS011;5043;41.766;26.204;2023-02-07T03:45:57;16.23;;;9.57;;
10007;SDS011;5043;41.766;26.204;2023-02-07T03:48:23;20.63;;;12.77;;
10007;SDS011;5043;41.766;26.204;2023-02-07T03:50:48;20.50;;;13.53;;
10007;SDS011;5043;41.766;26.204;2023-02-07T03:53:16;21.50;;;12.80;;
10007;SDS011;5043;41.766;26.204;2023-02-07T03:55:42;17.43;;;11.17;;
10007;SDS011;5043;41.766;26.204;2023-02-07T03:58:07;14.97;;;10.13;;
10007;SDS011;5043;41.766;26.204;2023-02-07T04:00:33;13.67;;;8.77;;
10007;SDS011;5043;41.766;26.204;2023-02-07T04:03:00;18.23;;;12.70;;
10007;SDS011;5043;41.766;26.204;2023-02-07T04:05:26;20.20;;;13.03;;
10007;SDS011;5043;41.766;26.204;2023-02-07T04:07:51;20.20;;;12.80;;
10007;SDS011;5043;41.766;26.204;2023-02-07T04:10:17;28.07;;;15.20;;
10007;SDS011;5043;41.766;26.204;2023-02-07T04:12:43;26.03;;;14.10;;
10007;SDS011;5043;41.766;26.204;2023-02-07T04:15:08;19.70;;;11.80;;
10007;SDS011;5043;41.766;26.204;2023-02-07T04:17:34;19.87;;;11.63;;
10007;SDS011;5043;41.766;26.204;2023-02-07T04:20:00;20.40;;;14.70;;
10007;SDS011;5043;41.766;26.204;2023-02-07T04:22:26;21.67;;;11.50;;
10007;SDS011;5043;41.766;26.204;2023-02-07T04:24:52;15.37;;;8.77;;
10007;SDS011;5043;41.766;26.204;2023-02-07T04:27:17;11.57;;;8.90;;
10007;SDS011;5043;41.766;26.204;2023-02-07T04:29:43;15.33;;;9.70;;
10007;SDS011;5043;41.766;26.204;2023-02-07T04:32:08;15.47;;;8.73;;
10007;SDS011;5043;41.766;26.204;2023-02-07T04:34:33;15.67;;;9.50;;
10007;SDS011;5043;41.766;26.204;2023-02-07T04:36:59;15.27;;;9.37;;
10007;SDS011;5043;41.766;26.204;2023-02-07T04:39:25;16.57;;;10.10;;
10007;SDS011;5043;41.766;26.204;2023-02-07T04:41:50;14.47;;;9.03;;
10007;SDS011;5043;41.766;26.204;2023-02-07T04:44:16;14.40;;;9.23;;
10007;SDS011;5043;41.766;26.204;2023-02-07T04:46:41;21.27;;;11.97;;
10007;SDS011;5043;41.766;26.204;2023-02-07T04:49:07;22.67;;;12.90;;
10007;SDS011;5043;41.766;26.204;2023-02-07T04:51:32;20.27;;;12.00;;
10007;SDS011;5043;41.766;26.204;2023-02-07T04:53:58;16.43;;;10.73;;
10007;SDS011;5043;41.766;26.204;2023-02-07T04:56:23;18.17;;;9.80;;
10007;SDS011;5043;41.766;26.204;2023-02-07T04:58:49;17.10;;;9.40;;
10007;SDS011;5043;41.766;26.204;2023-02-07T05:01:15;14.03;;;8.47;;
10007;SDS011;5043;41.766;26.204;2023-02-07T05:03:40;17.77;;;9.33;;
10007;SDS011;5043;41.766;26.204;2023-02-07T05:06:06;15.73;;;10.27;;
10007;SDS011;5043;41.766;26.204;2023-02-07T05:08:32;18.90;;;11.30;;
10007;SDS011;5043;41.766;26.204;2023-02-07T05:10:57;21.23;;;12.23;;
10007;SDS011;5043;41.766;26.204;2023-02-07T05:13:23;46.63;;;20.03;;
10007;SDS011;5043;41.766;26.204;2023-02-07T05:15:49;54.50;;;24.27;;
10007;SDS011;5043;41.766;26.204;2023-02-07T05:18:15;62.83;;;24.73;;
10007;SDS011;5043;41.766;26.204;2023-02-07T05:20:41;58.20;;;22.93;;
10007;SDS011;5043;41.766;26.204;2023-02-07T05:23:06;34.37;;;15.17;;
10007;SDS011;5043;41.766;26.204;2023-02-07T05:25:32;30.60;;;14.13;;
10007;SDS011;5043;41.766;26.204;2023-02-07T05:27:57;24.67;;;12.43;;
10007;SDS011;5043;41.766;26.204;2023-02-07T05:30:24;30.63;;;14.50;;
10007;SDS011;5043;41.766;26.204;2023-02-07T05:32:49;25.77;;;14.07;;
10007;SDS011;5043;41.766;26.204;2023-02-07T05:35:31;20.40;;;11.07;;
10007;SDS011;5043;41.766;26.204;2023-02-07T05:37:58;19.07;;;9.90;;
10007;SDS011;5043;41.766;26.204;2023-02-07T05:40:24;21.10;;;10.27;;
10007;SDS011;5043;41.766;26.204;2023-02-07T05:42:49;13.67;;;8.87;;
10007;SDS011;5043;41.766;26.204;2023-02-07T05:45:15;14.90;;;8.37;;
10007;SDS011;5043;41.766;26.204;2023-02-07T05:47:40;13.03;;;8.40;;
10007;SDS011;5043;41.766;26.204;2023-02-07T05:50:06;16.57;;;9.43;;
10007;SDS011;5043;41.766;26.204;2023-02-07T05:52:32;12.90;;;9.10;;
10007;SDS011;5043;41.766;26.204;2023-02-07T05:54:57;15.27;;;9.57;;
10007;SDS011;5043;41.766;26.204;2023-02-07T05:57:23;12.47;;;7.40;;
10007;SDS011;5043;41.766;26.204;2023-02-07T05:59:48;14.40;;;7.93;;
10007;SDS011;5043;41.766;26.204;2023-02-07T06:02:14;10.97;;;7.77;;
10007;SDS011;5043;41.766;26.204;2023-02-07T06:04:39;16.40;;;11.00;;
10007;SDS011;5043;41.766;26.204;2023-02-07T06:07:05;16.50;;;11.70;;
10007;SDS011;5043;41.766;26.204;2023-02-07T06:09:30;18.97;;;13.03;;
10007;SDS011;5043;41.766;26.204;2023-02-07T06:11:55;26.37;;;14.67;;
10007;SDS011;5043;41.766;26.204;2023-02-07T06:14:21;37.10;;;19.40;;
10007;SDS011;5043;41.766;26.204;2023-02-07T06:16:47;57.83;;;27.93;;
10007;SDS011;5043;41.766;26.204;2023-02-07T06:19:13;65.20;;;33.03;;
10007;SDS011;5043;41.766;26.204;2023-02-07T06:21:38;39.13;;;18.97;;
10007;SDS011;5043;41.766;26.204;2023-02-07T06:24:04;24.43;;;12.57;;
10007;SDS011;5043;41.766;26.204;2023-02-07T06:26:30;18.67;;;10.33;;
10007;SDS011;5043;41.766;26.204;2023-02-07T06:28:55;14.03;;;7.37;;
10007;SDS011;5043;41.766;26.204;2023-02-07T06:31:20;7.87;;;5.10;;
10007;SDS011;5043;41.766;26.204;2023-02-07T06:33:46;9.53;;;5.23;;
10007;SDS011;5043;41.766;26.204;2023-02-07T06:36:11;7.90;;;5.47;;
10007;SDS011;5043;41.766;26.204;2023-02-07T06:38:37;7.80;;;5.63;;
10007;SDS011;5043;41.766;26.204;2023-02-07T06:41:02;8.47;;;5.40;;
10007;SDS011;5043;41.766;26.204;2023-02-07T06:43:28;8.50;;;5.53;;
10007;SDS011;5043;41.766;26.204;2023-02-07T06:45:53;8.13;;;5.90;;
10007;SDS011;5043;41.766;26.204;2023-02-07T06:48:19;10.03;;;6.13;;
10007;SDS011;5043;41.766;26.204;2023-02-07T06:50:44;7.70;;;5.87;;
10007;SDS011;5043;41.766;26.204;2023-02-07T06:53:10;7.43;;;5.83;;
10007;SDS011;5043;41.766;26.204;2023-02-07T06:55:36;8.63;;;6.73;;
10007;SDS011;5043;41.766;26.204;2023-02-07T06:58:03;9.70;;;6.50;;
10007;SDS011;5043;41.766;26.204;2023-02-07T07:00:29;10.87;;;6.60;;
10007;SDS011;5043;41.766;26.204;2023-02-07T07:02:55;8.47;;;5.60;;
10007;SDS011;5043;41.766;26.204;2023-02-07T07:05:20;6.93;;;5.13;;
10007;SDS011;5043;41.766;26.204;2023-02-07T07:07:46;5.17;;;4.67;;
10007;SDS011;5043;41.766;26.204;2023-02-07T07:10:12;14.60;;;6.63;;
10007;SDS011;5043;41.766;26.204;2023-02-07T07:12:39;8.57;;;5.83;;
10007;SDS011;5043;41.766;26.204;2023-02-07T07:15:05;7.03;;;5.47;;
10007;SDS011;5043;41.766;26.204;2023-02-07T07:17:30;7.60;;;5.47;;
10007;SDS011;5043;41.766;26.204;2023-02-07T07:19:56;8.23;;;6.30;;
10007;SDS011;5043;41.766;26.204;2023-02-07T07:22:22;8.20;;;5.87;;
10007;SDS011;5043;41.766;26.204;2023-02-07T07:24:49;8.53;;;6.07;;
10007;SDS011;5043;41.766;26.204;2023-02-07T07:27:15;9.90;;;6.50;;
10007;SDS011;5043;41.766;26.204;2023-02-07T07:29:40;14.50;;;7.60;;
10007;SDS011;5043;41.766;26.204;2023-02-07T07:32:05;8.13;;;5.53;;
10007;SDS011;5043;41.766;26.204;2023-02-07T07:34:31;8.73;;;6.13;;
10007;SDS011;5043;41.766;26.204;2023-02-07T07:36:57;8.80;;;5.00;;
10007;SDS011;5043;41.766;26.204;2023-02-07T07:39:23;8.47;;;5.43;;
10007;SDS011;5043;41.766;26.204;2023-02-07T07:41:49;8.90;;;6.23;;
10007;SDS011;5043;41.766;26.204;2023-02-07T07:44:15;11.50;;;7.23;;
10007;SDS011;5043;41.766;26.204;2023-02-07T07:46:40;13.73;;;8.27;;
10007;SDS011;5043;41.766;26.204;2023-02-07T07:49:06;10.10;;;6.17;;
10007;SDS011;5043;41.766;26.204;2023-02-07T07:51:32;7.90;;;5.10;;
10007;SDS011;5043;41.766;26.204;2023-02-07T07:53:57;8.90;;;5.97;;
10007;SDS011;5043;41.766;26.204;2023-02-07T07:56:23;7.60;;;4.93;;
10007;SDS011;5043;41.766;26.204;2023-02-07T07:58:48;7.23;;;4.40;;
10007;SDS011;5043;41.766;26.204;2023-02-07T08:01:14;12.13;;;5.80;;
10007;SDS011;5043;41.766;26.204;2023-02-07T08:03:39;9.00;;;5.77;;
10007;SDS011;5043;41.766;26.204;2023-02-07T08:06:05;8.70;;;6.07;;
10007;SDS011;5043;41.766;26.204;2023-02-07T08:08:31;9.70;;;6.60;;
10007;SDS011;5043;41.766;26.204;2023-02-07T08:11:03;8.87;;;6.23;;
10007;SDS011;5043;41.766;26.204;2023-02-07T08:13:30;5.57;;;4.30;;
10007;SDS011;5043;41.766;26.204;2023-02-07T08:15:56;5.60;;;4.60;;
10007;SDS011;5043;41.766;26.204;2023-02-07T08:18:22;6.33;;;4.50;;
10007;SDS011;5043;41.766;26.204;2023-02-07T08:20:48;8.13;;;3.63;;
10007;SDS011;5043;41.766;26.204;2023-02-07T08:23:14;9.27;;;4.97;;
10007;SDS011;5043;41.766;26.204;2023-02-07T08:25:39;7.27;;;4.43;;
10007;SDS011;5043;41.766;26.204;2023-02-07T08:28:06;7.17;;;4.80;;
10007;SDS011;5043;41.766;26.204;2023-02-07T08:30:32;4.93;;;4.10;;
10007;SDS011;5043;41.766;26.204;2023-02-07T08:32:58;10.47;;;5.47;;
10007;SDS011;5043;41.766;26.204;2023-02-07T08:35:23;5.03;;;3.80;;
10007;SDS011;5043;41.766;26.204;2023-02-07T08:37:50;8.03;;;5.07;;
10007;SDS011;5043;41.766;26.204;2023-02-07T08:40:16;11.43;;;5.90;;
10007;SDS011;5043;41.766;26.204;2023-02-07T08:42:42;7.83;;;5.00;;
10007;SDS011;5043;41.766;26.204;2023-02-07T08:45:08;9.30;;;4.20;;
10007;SDS011;5043;41.766;26.204;2023-02-07T08:47:34;7.73;;;5.03;;
10007;SDS011;5043;41.766;26.204;2023-02-07T08:49:59;7.67;;;4.60;;
10007;SDS011;5043;41.766;26.204;2023-02-07T08:52:25;8.93;;;5.37;;
10007;SDS011;5043;41.766;26.204;2023-02-07T08:54:51;8.33;;;5.77;;
10007;SDS011;5043;41.766;26.204;2023-02-07T08:57:17;5.60;;;4.40;;
10007;SDS011;5043;41.766;26.204;2023-02-07T08:59:47;12.90;;;7.23;;
10007;SDS011;5043;41.766;26.204;2023-02-07T09:02:12;9.93;;;5.77;;
10007;SDS011;5043;41.766;26.204;2023-02-07T09:04:38;5.93;;;4.20;;
10007;SDS011;5043;41.766;26.204;2023-02-07T09:07:06;3.87;;;3.30;;
10007;SDS011;5043;41.766;26.204;2023-02-07T09:09:32;5.50;;;4.27;;
10007;SDS011;5043;41.766;26.204;2023-02-07T09:11:58;8.33;;;4.10;;
10007;SDS011;5043;41.766;26.204;2023-02-07T09:14:23;6.57;;;4.37;;
10007;SDS011;5043;41.766;26.204;2023-02-07T09:16:49;6.00;;;4.57;;
10007;SDS011;5043;41.766;26.204;2023-02-07T09:19:15;5.07;;;4.33;;
10007;SDS011;5043;41.766;26.204;2023-02-07T09:21:41;4.37;;;3.97;;
10007;SDS011;5043;41.766;26.204;2023-02-07T09:24:06;6.87;;;4.93;;
10007;SDS011;5043;41.766;26.204;2023-02-07T09:26:32;5.87;;;4.50;;
10007;SDS011;5043;41.766;26.204;2023-02-07T09:28:59;5.33;;;3.70;;
10007;SDS011;5043;41.766;26.204;2023-02-07T09:31:26;6.13;;;4.40;;
10007;SDS011;5043;41.766;26.204;2023-02-07T09:33:52;6.93;;;5.17;;
10007;SDS011;5043;41.766;26.204;2023-02-07T09:36:19;7.27;;;4.77;;
10007;SDS011;5043;41.766;26.204;2023-02-07T09:38:53;6.67;;;4.23;;
10007;SDS011;5043;41.766;26.204;2023-02-07T09:47:04;5.60;;;3.83;;
10007;SDS011;5043;41.766;26.204;2023-02-07T09:49:36;5.50;;;4.53;;
10007;SDS011;5043;41.766;26.204;2023-02-07T09:52:08;4.60;;;3.90;;
10007;SDS011;5043;41.766;26.204;2023-02-07T09:54:48;6.77;;;4.60;;
10007;SDS011;5043;41.766;26.204;2023-02-07T09:57:19;9.73;;;5.53;;
10007;SDS011;5043;41.766;26.204;2023-02-07T09:59:53;9.60;;;6.43;;
10007;SDS011;5043;41.766;26.204;2023-02-07T10:02:37;5.90;;;4.57;;
10007;SDS011;5043;41.766;26.204;2023-02-07T10:05:15;7.30;;;4.73;;
10007;SDS011;5043;41.766;26.204;2023-02-07T10:07:44;10.23;;;6.47;;
10007;SDS011;5043;41.766;26.204;2023-02-07T10:10:13;7.97;;;5.70;;
10007;SDS011;5043;41.766;26.204;2023-02-07T10:32:30;10.03;;;7.27;;
10007;SDS011;5043;41.766;26.204;2023-02-07T10:34:58;7.20;;;4.97;;
10007;SDS011;5043;41.766;26.204;2023-02-07T10:37:36;8.47;;;5.50;;
10007;SDS011;5043;41.766;26.204;2023-02-07T10:42:54;6.67;;;4.30;;
10007;SDS011;5043;41.766;26.204;2023-02-07T10:45:25;10.57;;;4.87;;
10007;SDS011;5043;41.766;26.204;2023-02-07T10:47:51;6.80;;;4.97;;
10007;SDS011;5043;41.766;26.204;2023-02-07T10:50:18;6.87;;;4.50;;
10007;SDS011;5043;41.766;26.204;2023-02-07T10:52:53;8.20;;;5.63;;
10007;SDS011;5043;41.766;26.204;2023-02-07T10:58:22;8.73;;;5.77;;
10007;SDS011;5043;41.766;26.204;2023-02-07T11:00:49;5.00;;;4.40;;
10007;SDS011;5043;41.766;26.204;2023-02-07T11:03:17;9.00;;;5.10;;
10007;SDS011;5043;41.766;26.204;2023-02-07T11:06:04;4.60;;;3.97;;
10007;SDS011;5043;41.766;26.204;2023-02-07T11:08:33;5.57;;;4.60;;
10007;SDS011;5043;41.766;26.204;2023-02-07T11:11:16;6.30;;;4.33;;
10007;SDS011;5043;41.766;26.204;2023-02-07T11:13:53;5.17;;;3.57;;
10007;SDS011;5043;41.766;26.204;2023-02-07T11:16:21;7.23;;;4.73;;
10007;SDS011;5043;41.766;26.204;2023-02-07T11:18:58;8.37;;;5.00;;
10007;SDS011;5043;41.766;26.204;2023-02-07T11:21:44;10.70;;;6.10;;
10007;SDS011;5043;41.766;26.204;2023-02-07T11:24:13;8.87;;;5.80;;
10007;SDS011;5043;41.766;26.204;2023-02-07T11:26:51;5.93;;;4.77;;
10007;SDS011;5043;41.766;26.204;2023-02-07T11:29:20;8.43;;;5.47;;
10007;SDS011;5043;41.766;26.204;2023-02-07T11:31:49;8.20;;;5.50;;
10007;SDS011;5043;41.766;26.204;2023-02-07T11:37:36;9.40;;;6.53;;
10007;SDS011;5043;41.766;26.204;2023-02-07T11:42:41;5.83;;;4.40;;
10007;SDS011;5043;41.766;26.204;2023-02-07T11:45:14;6.80;;;4.67;;
10007;SDS011;5043;41.766;26.204;2023-02-07T11:47:46;9.00;;;4.70;;
10007;SDS011;5043;41.766;26.204;2023-02-07T11:53:14;12.27;;;5.13;;
10007;SDS011;5043;41.766;26.204;2023-02-07T11:55:48;7.20;;;5.13;;
10007;SDS011;5043;41.766;26.204;2023-02-07T11:58:19;9.07;;;6.13;;
10007;SDS011;5043;41.766;26.204;2023-02-07T12:01:14;6.07;;;4.53;;
10007;SDS011;5043;41.766;26.204;2023-02-07T12:06:41;9.00;;;4.93;;
10007;SDS011;5043;41.766;26.204;2023-02-07T12:09:29;9.37;;;5.43;;
10007;SDS011;5043;41.766;26.204;2023-02-07T12:11:56;17.33;;;10.20;;
10007;SDS011;5043;41.766;26.204;2023-02-07T12:17:15;8.60;;;5.20;;
10007;SDS011;5043;41.766;26.204;2023-02-07T12:19:51;9.73;;;6.07;;
10007;SDS011;5043;41.766;26.204;2023-02-07T12:22:21;12.23;;;7.83;;
10007;SDS011;5043;41.766;26.204;2023-02-07T12:25:08;11.40;;;7.47;;
10007;SDS011;5043;41.766;26.204;2023-02-07T12:27:44;6.40;;;5.03;;
10007;SDS011;5043;41.766;26.204;2023-02-07T12:33:12;7.23;;;5.57;;
10007;SDS011;5043;41.766;26.204;2023-02-07T12:41:33;16.53;;;9.87;;
10007;SDS011;5043;41.766;26.204;2023-02-07T12:54:58;10.40;;;6.70;;
10007;SDS011;5043;41.766;26.204;2023-02-07T12:58:02;8.77;;;5.57;;
10007;SDS011;5043;41.766;26.204;2023-02-07T13:00:51;9.60;;;6.07;;
10007;SDS011;5043;41.766;26.204;2023-02-07T13:22:25;16.27;;;8.73;;
10007;SDS011;5043;41.766;26.204;2023-02-07T13:24:56;6.77;;;5.07;;
10007;SDS011;5043;41.766;26.204;2023-02-07T13:27:23;10.53;;;5.47;;
10007;SDS011;5043;41.766;26.204;2023-02-07T13:29:52;11.43;;;7.40;;
10007;SDS011;5043;41.766;26.204;2023-02-07T13:32:20;9.17;;;6.00;;
10007;SDS011;5043;41.766;26.204;2023-02-07T13:34:52;13.03;;;7.03;;
10007;SDS011;5043;41.766;26.204;2023-02-07T13:37:20;10.53;;;6.60;;
10007;SDS011;5043;41.766;26.204;2023-02-07T13:40:03;8.40;;;5.57;;
10007;SDS011;5043;41.766;26.204;2023-02-07T13:48:14;11.67;;;7.37;;
10007;SDS011;5043;41.766;26.204;2023-02-07T13:56:58;10.10;;;4.90;;
10007;SDS011;5043;41.766;26.204;2023-02-07T13:59:44;11.20;;;7.03;;
10007;SDS011;5043;41.766;26.204;2023-02-07T14:02:38;9.97;;;7.23;;
10007;SDS011;5043;41.766;26.204;2023-02-07T14:05:07;14.27;;;8.57;;
10007;SDS011;5043;41.766;26.204;2023-02-07T14:07:34;8.87;;;6.13;;
10007;SDS011;5043;41.766;26.204;2023-02-07T14:10:04;9.47;;;6.40;;
10007;SDS011;5043;41.766;26.204;2023-02-07T14:12:31;10.07;;;6.97;;
10007;SDS011;5043;41.766;26.204;2023-02-07T14:17:59;12.53;;;7.20;;
10007;SDS011;5043;41.766;26.204;2023-02-07T14:23:12;18.57;;;8.27;;
10007;SDS011;5043;41.766;26.204;2023-02-07T14:25:44;9.20;;;7.37;;
10007;SDS011;5043;41.766;26.204;2023-02-07T14:28:27;9.20;;;6.40;;
10007;SDS011;5043;41.766;26.204;2023-02-07T14:30:57;8.23;;;5.57;;
10007;SDS011;5043;41.766;26.204;2023-02-07T14:33:28;9.33;;;6.90;;
10007;SDS011;5043;41.766;26.204;2023-02-07T14:38:39;12.47;;;7.80;;
10007;SDS011;5043;41.766;26.204;2023-02-07T14:41:08;9.33;;;6.17;;
10007;SDS011;5043;41.766;26.204;2023-02-07T14:43:50;13.63;;;8.23;;
10007;SDS011;5043;41.766;26.204;2023-02-07T14:46:25;12.13;;;7.90;;
10007;SDS011;5043;41.766;26.204;2023-02-07T14:51:30;15.40;;;9.63;;
10007;SDS011;5043;41.766;26.204;2023-02-07T14:56:52;11.53;;;6.87;;
10007;SDS011;5043;41.766;26.204;2023-02-07T15:02:40;45.70;;;34.60;;
10007;SDS011;5043;41.766;26.204;2023-02-07T15:05:26;58.87;;;39.50;;
10007;SDS011;5043;41.766;26.204;2023-02-07T15:10:36;23.43;;;18.37;;
10007;SDS011;5043;41.766;26.204;2023-02-07T15:13:16;24.03;;;18.73;;
10007;SDS011;5043;41.766;26.204;2023-02-07T15:18:41;13.47;;;9.57;;
10007;SDS011;5043;41.766;26.204;2023-02-07T15:21:15;16.30;;;10.70;;
10007;SDS011;5043;41.766;26.204;2023-02-07T15:23:47;13.47;;;9.20;;
10007;SDS011;5043;41.766;26.204;2023-02-07T15:26:26;12.00;;;8.30;;
10007;SDS011;5043;41.766;26.204;2023-02-07T15:28:57;9.70;;;6.90;;
10007;SDS011;5043;41.766;26.204;2023-02-07T15:31:24;12.13;;;7.50;;
10007;SDS011;5043;41.766;26.204;2023-02-07T15:33:58;13.00;;;8.73;;
10007;SDS011;5043;41.766;26.204;2023-02-07T15:38:57;17.47;;;9.87;;
10007;SDS011;5043;41.766;26.204;2023-02-07T15:41:24;19.17;;;11.13;;
10007;SDS011;5043;41.766;26.204;2023-02-07T15:43:58;15.77;;;9.27;;
10007;SDS011;5043;41.766;26.204;2023-02-07T15:46:26;16.30;;;9.10;;
10007;SDS011;5043;41.766;26.204;2023-02-07T15:49:06;13.77;;;8.13;;
10007;SDS011;5043;41.766;26.204;2023-02-07T15:51:35;13.43;;;8.30;;
10007;SDS011;5043;41.766;26.204;2023-02-07T15:54:05;12.07;;;7.47;;
10007;SDS011;5043;41.766;26.204;2023-02-07T15:56:31;17.90;;;9.20;;
10007;SDS011;5043;41.766;26.204;2023-02-07T15:59:01;20.17;;;11.83;;
10007;SDS011;5043;41.766;26.204;2023-02-07T16:01:34;18.93;;;13.27;;
10007;SDS011;5043;41.766;26.204;2023-02-07T16:04:03;24.70;;;15.47;;
10007;SDS011;5043;41.766;26.204;2023-02-07T16:06:29;26.87;;;16.07;;
10007;SDS011;5043;41.766;26.204;2023-02-07T16:08:57;20.80;;;12.50;;
10007;SDS011;5043;41.766;26.204;2023-02-07T16:16:28;19.73;;;10.87;;
10007;SDS011;5043;41.766;26.204;2023-02-07T16:21:49;18.83;;;11.97;;
10007;SDS011;5043;41.766;26.204;2023-02-07T16:24:27;17.10;;;10.20;;
10007;SDS011;5043;41.766;26.204;2023-02-07T16:26:53;26.60;;;13.40;;
10007;SDS011;5043;41.766;26.204;2023-02-07T16:29:22;23.93;;;13.20;;
10007;SDS011;5043;41.766;26.204;2023-02-07T16:31:50;25.73;;;13.23;;
10007;SDS011;5043;41.766;26.204;2023-02-07T16:34:17;29.13;;;17.00;;
10007;SDS011;5043;41.766;26.204;2023-02-07T16:36:45;34.00;;;16.63;;
10007;SDS011;5043;41.766;26.204;2023-02-07T16:39:14;32.20;;;15.77;;
10007;SDS011;5043;41.766;26.204;2023-02-07T16:41:42;74.20;;;27.80;;
10007;SDS011;5043;41.766;26.204;2023-02-07T16:44:19;53.20;;;25.80;;
10007;SDS011;5043;41.766;26.204;2023-02-07T16:46:47;50.83;;;24.80;;
10007;SDS011;5043;41.766;26.204;2023-02-07T16:49:14;74.53;;;31.10;;
10007;SDS011;5043;41.766;26.204;2023-02-07T16:51:41;84.27;;;33.20;;
10007;SDS011;5043;41.766;26.204;2023-02-07T16:54:08;150.03;;;48.13;;
10007;SDS011;5043;41.766;26.204;2023-02-07T16:56:33;126.97;;;45.93;;
10007;SDS011;5043;41.766;26.204;2023-02-07T16:58:59;101.93;;;36.33;;
10007;SDS011;5043;41.766;26.204;2023-02-07T17:01:24;62.23;;;26.80;;
10007;SDS011;5043;41.766;26.204;2023-02-07T17:03:50;62.03;;;29.63;;
10007;SDS011;5043;41.766;26.204;2023-02-07T17:06:16;40.90;;;22.87;;
10007;SDS011;5043;41.766;26.204;2023-02-07T17:08:43;27.03;;;16.13;;
10007;SDS011;5043;41.766;26.204;2023-02-07T17:11:13;18.93;;;11.70;;
10007;SDS011;5043;41.766;26.204;2023-02-07T17:13:41;26.60;;;15.53;;
10007;SDS011;5043;41.766;26.204;2023-02-07T17:16:10;21.17;;;14.03;;
10007;SDS011;5043;41.766;26.204;2023-02-07T17:18:37;34.97;;;17.37;;
10007;SDS011;5043;41.766;26.204;2023-02-07T17:21:03;43.13;;;21.07;;
10007;SDS011;5043;41.766;26.204;2023-02-07T17:23:29;42.43;;;22.27;;
10007;SDS011;5043;41.766;26.204;2023-02-07T17:25:54;35.23;;;22.13;;
10007;SDS011;5043;41.766;26.204;2023-02-07T17:28:20;27.57;;;18.37;;